• Join FlightAware (Why Join?)
  • Login
  • US Flag 
07:12AM EDT


 

Airport Tracker/Info


-or-


 

Live Flight TrackerFlight Track Log ✈ N516QS ✈ 16-Apr-2013 ✈ KMDW - KBMI

Flight Track Log - Related Links

Times and Time Zones

All times are in EDT time to prevent confusion due to time zone crossing. See the N516QS flight status page for this flight to view local times or setup timezone preferences in your user account.

Time Position Orientation Groundspeed Altitude Reporting Facility
EDT Latitude Longitude Course Direction KTS MPH feet Rate Location/Type
01:50PM 41.6356 -87.9097 220° Southwest 253 291 8,700  Level Chicago Center
01:51PM 41.5736 -87.9631 213° Southwest 264 304 10,000 600 Climbing Chicago Center
01:52PM 41.4983 -88.0289 213° Southwest 323 372 10,000  Level Chicago Center
01:53PM 41.4158 -88.1033 214° Southwest 320 368 10,000  Level Chicago Center
01:54PM 41.3431 -88.1683 214° Southwest 321 369 10,000  Level Chicago Center
01:55PM 41.2717 -88.2339 215° Southwest 316 364 10,000  Level Chicago Center
01:56PM 41.1961 -88.2961 212° Southwest 319 367 10,000  Level Chicago Center
01:57PM 41.1214 -88.3578 212° Southwest 318 366 10,000  Level Chicago Center
01:58PM 41.0453 -88.4192 211° Southwest 321 369 10,000  Level Chicago Center
01:59PM 40.9639 -88.4847 211° Southwest 288 331 10,000 -420 Level Chicago Center
02:00PM 40.9019 -88.5356 212° Southwest 265 305 9,200 -1,200 Descending Chicago Center
02:01PM 40.8386 -88.5792 208° Southwest 260 299 7,600 -1,620 Descending Chicago Center
02:02PM 40.7744 -88.6189 205° Southwest 256 295 6,000 -1,500 Descending Chicago Center
02:04PM 40.7122 -88.6658 210° Southwest 258 297 4,500 -1,020 Descending Chicago Center
02:05PM 40.6481 -88.7122 209° Southwest 263 303 4,000 -300 Descending Chicago Center
02:06PM 40.5661 -88.7456 197° South 258 297 4,000 -60 Level Chicago Center
02:07PM 40.4975 -88.7761 199° South 260 299 3,900  Descending Chicago Center
02:08PM 40.4319 -88.8042 198° South 258 297 4,000  Climbing Chicago Center
02:09PM 40.3789 -88.8281 199° South 218 251 3,900 -540 Descending Chicago Center
02:10PM 40.3319 -88.8656 211° Southwest 219 252 2,900 -720 Descending Chicago Center
02:11PM 40.3303 -88.9319 268° West 195 224 2,500 -300 Descending Chicago Center
02:12PM 40.3650 -88.9575 331° Northwest 177 204 2,400 -300 Descending Chicago Center
02:13PM 40.4133 -88.9369 18° North 162 186 2,000 -540 Descending Chicago Center
02:14PM 40.4408 -88.9253 18° North 150 173 1,400 -600 Descending Chicago Center